createdAt,value
2022-11-08T00:02:02.345Z,100858.53
2022-11-08T00:05:24.163Z,100867.97
2022-11-08T00:08:44.999Z,100867.47
2022-11-08T00:12:05.957Z,100863.03
2022-11-08T00:15:09.182Z,100865.72
2022-11-08T00:18:13.876Z,100869.12
2022-11-08T00:21:16.046Z,100862.62
2022-11-08T00:24:18.645Z,100866.47
2022-11-08T00:27:23.493Z,100866.84
2022-11-08T00:30:25.961Z,100861.34
2022-11-08T00:33:28.157Z,100876.81
2022-11-08T00:36:30.578Z,100867.22
2022-11-08T00:39:32.734Z,100869.62
2022-11-08T00:42:35.257Z,100868.28
2022-11-08T00:45:37.406Z,100872.97
2022-11-08T00:48:39.882Z,100864.13
2022-11-08T00:51:42.374Z,100866.59
2022-11-08T00:54:45.296Z,100861.06
2022-11-08T00:57:59.063Z,100850.56
2022-11-08T01:01:09.404Z,100863.63
2022-11-08T01:04:13.667Z,100856.47
2022-11-08T01:07:16.191Z,100861.06
2022-11-08T01:10:18.423Z,100858.31
2022-11-08T01:13:21.060Z,100861.13
2022-11-08T01:16:25.532Z,100861.72
2022-11-08T01:19:28.034Z,100869.72
2022-11-08T01:22:30.176Z,100870.41
2022-11-08T01:25:37.208Z,100865.94
2022-11-08T01:28:40.051Z,100858.84
2022-11-08T01:31:42.824Z,100868.38
2022-11-08T01:34:44.989Z,100856.84
2022-11-08T01:37:47.854Z,100866.88
2022-11-08T01:40:50.079Z,100858.03
2022-11-08T01:43:57.093Z,100861.66
2022-11-08T01:46:59.330Z,100860.66
2022-11-08T01:50:05.031Z,100856.25
2022-11-08T01:53:07.290Z,100855.47
2022-11-08T01:56:12.299Z,100854.91
2022-11-08T01:59:17.922Z,100852.34
2022-11-08T02:02:21.267Z,100855.19
2022-11-08T02:05:27.311Z,100850.53
2022-11-08T02:08:34.627Z,100845.34
2022-11-08T02:11:37.228Z,100843.25
2022-11-08T02:14:39.453Z,100845.81
2022-11-08T02:17:42.015Z,100846.50
2022-11-08T02:21:02.994Z,100843.19
2022-11-08T02:24:11.880Z,100848.41
2022-11-08T02:27:14.822Z,100849.59
2022-11-08T02:30:17.360Z,100846.81
2022-11-08T02:33:22.224Z,100849.44
2022-11-08T02:36:27.777Z,100848.09
2022-11-08T02:39:30.625Z,100848.19
2022-11-08T02:42:33.026Z,100852.12
2022-11-08T02:45:35.200Z,100843.69
2022-11-08T02:48:37.766Z,100850.63
2022-11-08T02:51:40.620Z,100851.38
2022-11-08T02:54:43.405Z,100865.03
2022-11-08T02:57:45.682Z,100849.81
2022-11-08T03:00:48.204Z,100849.28
2022-11-08T03:03:50.552Z,100857.34
2022-11-08T03:06:53.449Z,100845.34
2022-11-08T03:09:58.880Z,100850.53
2022-11-08T03:13:05.352Z,100848.88
2022-11-08T03:16:07.854Z,100854.03
2022-11-08T03:19:12.075Z,100857.06
2022-11-08T03:22:15.489Z,100858.62
2022-11-08T03:25:18.035Z,100862.50
2022-11-08T03:28:23.126Z,100864.41
2022-11-08T03:31:25.978Z,100863.50
2022-11-08T03:34:28.162Z,100865.84
2022-11-08T03:37:31.016Z,100869.12
2022-11-08T03:40:33.313Z,100859.78
2022-11-08T03:43:35.916Z,100861.34
2022-11-08T03:46:38.093Z,100863.00
2022-11-08T03:49:40.674Z,100861.97
2022-11-08T03:52:50.570Z,100865.72
2022-11-08T03:55:53.133Z,100869.00
2022-11-08T03:58:55.356Z,100866.44
2022-11-08T04:01:58.062Z,100869.28
2022-11-08T04:05:01.127Z,100873.56
2022-11-08T04:08:05.043Z,100867.87
2022-11-08T04:11:26.055Z,100870.00
2022-11-08T04:14:47.018Z,100860.16
2022-11-08T04:18:10.346Z,100858.62
2022-11-08T04:21:19.939Z,100856.09
2022-11-08T04:24:22.825Z,100858.38
2022-11-08T04:27:25.015Z,100853.84
2022-11-08T04:30:27.554Z,100860.44
2022-11-08T04:33:30.752Z,100851.25
2022-11-08T04:36:33.922Z,100843.66
2022-11-08T04:39:36.127Z,100852.84
2022-11-08T04:42:43.248Z,100849.53
2022-11-08T04:45:45.713Z,100841.78
2022-11-08T04:48:52.350Z,100847.16
2022-11-08T04:51:55.330Z,100851.03
2022-11-08T04:54:58.574Z,100851.69
2022-11-08T04:58:01.218Z,100844.94
2022-11-08T05:01:05.885Z,100844.78
2022-11-08T05:04:09.904Z,100844.44
2022-11-08T05:07:13.620Z,100845.81
2022-11-08T05:10:16.228Z,100838.75
2022-11-08T05:13:19.079Z,100843.84
2022-11-08T05:16:24.689Z,100850.37
2022-11-08T05:19:46.512Z,100848.06
2022-11-08T05:23:07.771Z,100845.03
2022-11-08T05:26:11.570Z,100849.69
2022-11-08T05:29:15.590Z,100860.19
2022-11-08T05:32:18.918Z,100868.59
2022-11-08T05:35:23.859Z,100864.94
2022-11-08T05:38:26.322Z,100859.09
2022-11-08T05:41:28.637Z,100864.84
2022-11-08T05:44:31.158Z,100870.59
2022-11-08T05:47:34.599Z,100869.00
2022-11-08T05:50:37.779Z,100874.09
2022-11-08T05:53:41.564Z,100874.00
2022-11-08T05:56:46.790Z,100882.47
2022-11-08T05:59:48.973Z,100873.38
2022-11-08T06:02:51.468Z,100880.87
2022-11-08T06:05:53.879Z,100876.94
2022-11-08T06:08:55.999Z,100873.53
2022-11-08T06:11:58.532Z,100872.00
2022-11-08T06:15:00.765Z,100884.53
2022-11-08T06:18:06.214Z,100878.63
2022-11-08T06:21:11.649Z,100882.25
2022-11-08T06:24:17.422Z,100881.34
2022-11-08T06:27:19.527Z,100889.97
2022-11-08T06:30:21.870Z,100892.81
2022-11-08T06:33:23.911Z,100888.78
2022-11-08T06:36:26.280Z,100891.94
2022-11-08T06:39:28.381Z,100900.06
2022-11-08T06:42:30.708Z,100887.31
2022-11-08T06:45:32.876Z,100891.37
2022-11-08T06:48:36.356Z,100900.34
2022-11-08T06:51:38.535Z,100899.50
2022-11-08T06:54:40.840Z,100903.19
2022-11-08T06:57:42.928Z,100906.50
2022-11-08T07:00:45.402Z,100908.78
2022-11-08T07:03:47.506Z,100911.50
2022-11-08T07:06:49.864Z,100915.44
2022-11-08T07:09:51.941Z,100912.31
2022-11-08T07:13:05.019Z,100909.00
2022-11-08T07:16:07.373Z,100912.34
2022-11-08T07:19:09.884Z,100904.97
2022-11-08T07:22:11.949Z,100907.03
2022-11-08T07:25:14.524Z,100908.88
2022-11-08T07:28:19.078Z,100912.97
2022-11-08T07:31:21.784Z,100908.22
2022-11-08T07:34:24.237Z,100916.59
2022-11-08T07:37:26.797Z,100919.44
2022-11-08T07:40:29.286Z,100920.28
2022-11-08T07:43:31.961Z,100912.72
2022-11-08T07:46:35.683Z,100922.91
2022-11-08T07:49:40.483Z,100918.53
2022-11-08T07:52:42.783Z,100927.41
2022-11-08T07:55:47.071Z,100920.97
2022-11-08T07:58:49.331Z,100919.09
2022-11-08T08:01:52.017Z,100923.50
2022-11-08T08:04:54.590Z,100918.75
2022-11-08T08:07:58.220Z,100921.53
2022-11-08T08:11:01.670Z,100923.88
2022-11-08T08:14:03.985Z,100924.53
2022-11-08T08:17:06.439Z,100927.97
2022-11-08T08:20:09.197Z,100927.00
2022-11-08T08:23:11.578Z,100931.06
2022-11-08T08:26:13.772Z,100922.69
2022-11-08T08:29:16.210Z,100922.53
2022-11-08T08:32:18.565Z,100929.31
2022-11-08T08:35:20.954Z,100919.84
2022-11-08T08:38:23.147Z,100925.22
2022-11-08T08:41:25.501Z,100925.28
2022-11-08T08:44:27.577Z,100919.38
2022-11-08T08:47:29.915Z,100926.03
2022-11-08T08:50:35.226Z,100923.41
2022-11-08T08:53:38.732Z,100926.56
2022-11-08T08:56:41.597Z,100938.97
2022-11-08T09:03:08.520Z,100943.97
2022-11-08T09:06:11.044Z,100946.13
2022-11-08T09:09:13.115Z,100943.44
2022-11-08T09:12:15.503Z,100953.53
2022-11-08T09:15:17.734Z,100957.22
2022-11-08T09:18:20.865Z,100950.41
2022-11-08T09:21:23.215Z,100967.09
2022-11-08T09:24:26.150Z,100961.16
2022-11-08T09:27:29.589Z,100962.63
2022-11-08T09:30:32.445Z,100960.06
2022-11-08T09:33:35.558Z,100967.50
2022-11-08T09:36:38.120Z,100964.38
2022-11-08T09:39:40.191Z,100959.00
2022-11-08T09:43:01.522Z,100958.22
2022-11-08T09:46:03.954Z,100957.09
2022-11-08T09:49:15.187Z,100951.28
2022-11-08T09:52:23.518Z,100952.44
2022-11-08T09:55:39.886Z,100953.28
2022-11-08T09:58:54.382Z,100954.50
2022-11-08T10:01:56.945Z,100954.72
2022-11-08T10:05:06.697Z,100948.25
2022-11-08T10:08:20.739Z,100951.87
2022-11-08T10:11:44.795Z,100952.50
2022-11-08T10:14:59.206Z,100957.84
2022-11-08T10:18:25.953Z,100946.53
2022-11-08T10:21:46.874Z,100946.66
2022-11-08T10:25:03.190Z,100935.88
2022-11-08T10:28:35.335Z,100938.44
2022-11-08T10:31:41.378Z,100943.19
2022-11-08T10:34:54.161Z,100926.88
2022-11-08T10:38:00.682Z,100931.75
2022-11-08T10:41:24.564Z,100927.28
2022-11-08T10:44:28.522Z,100916.62
2022-11-08T10:47:33.050Z,100919.50
2022-11-08T10:50:44.135Z,100914.94
2022-11-08T10:53:46.286Z,100919.56
2022-11-08T10:56:55.915Z,100904.66
2022-11-08T11:00:15.166Z,100898.31
2022-11-08T11:03:28.893Z,100897.53
2022-11-08T11:06:34.226Z,100896.59
2022-11-08T11:09:36.844Z,100906.56
2022-11-08T11:12:39.044Z,100895.56
2022-11-08T11:15:47.716Z,100898.47
2022-11-08T11:18:52.745Z,100902.09
2022-11-08T11:22:02.091Z,100906.25
2022-11-08T11:25:19.712Z,100901.37
2022-11-08T11:28:26.936Z,100905.88
2022-11-08T11:31:55.745Z,100901.75
2022-11-08T11:35:45.382Z,100895.91
2022-11-08T11:39:07.367Z,100900.03
2022-11-08T11:42:49.624Z,100898.06
2022-11-08T11:46:04.436Z,100895.22
2022-11-08T11:49:14.399Z,100890.63
2022-11-08T11:52:20.876Z,100881.00
2022-11-08T11:55:33.244Z,100884.63
2022-11-08T11:58:48.766Z,100881.41
2022-11-08T12:02:03.188Z,100871.66
2022-11-08T12:05:38.127Z,100879.72
2022-11-08T12:08:50.941Z,100866.28
2022-11-08T12:12:10.916Z,100861.41
2022-11-08T12:15:32.069Z,100855.66
2022-11-08T12:18:56.186Z,100843.31
2022-11-08T12:22:04.306Z,100841.59
2022-11-08T12:25:25.749Z,100838.88
2022-11-08T12:28:47.085Z,100839.16
2022-11-08T12:32:11.395Z,100833.97
2022-11-08T12:35:31.335Z,100829.72
2022-11-08T12:38:56.061Z,100827.47
2022-11-08T12:42:14.348Z,100822.81
2022-11-08T12:45:25.809Z,100810.81
2022-11-08T12:48:48.545Z,100821.00
2022-11-08T12:52:17.354Z,100810.16
2022-11-08T12:55:32.682Z,100818.38
2022-11-08T12:58:34.940Z,100808.12
2022-11-08T13:01:37.466Z,100807.75
2022-11-08T13:04:46.392Z,100811.72
2022-11-08T13:08:17.637Z,100807.28
2022-11-08T13:11:27.221Z,100807.84
2022-11-08T13:14:30.144Z,100800.78
2022-11-08T13:17:32.646Z,100805.66
2022-11-08T13:20:40.066Z,100799.16
2022-11-08T13:23:42.611Z,100791.91
2022-11-08T13:26:45.156Z,100791.16
2022-11-08T13:29:47.649Z,100785.91
2022-11-08T13:32:58.354Z,100786.25
2022-11-08T13:36:40.581Z,100789.47
2022-11-08T13:40:13.592Z,100795.19
2022-11-08T13:43:29.439Z,100789.16
2022-11-08T13:46:31.744Z,100788.75
2022-11-08T13:49:34.480Z,100784.06
2022-11-08T13:52:45.790Z,100794.16
2022-11-08T13:56:17.597Z,100786.31
2022-11-08T13:59:35.182Z,100785.25
2022-11-08T14:02:38.936Z,100783.59
2022-11-08T14:05:46.823Z,100776.34
2022-11-08T14:09:09.841Z,100781.72
2022-11-08T14:12:20.537Z,100788.34
2022-11-08T14:15:42.103Z,100793.13
2022-11-08T14:23:34.856Z,100797.53
2022-11-08T14:31:59.869Z,100784.00
2022-11-08T14:35:31.193Z,100792.94
2022-11-08T14:38:38.364Z,100788.88
2022-11-08T14:41:56.010Z,100788.28
2022-11-08T14:45:44.675Z,100784.12
2022-11-08T14:54:09.343Z,100786.44
2022-11-08T15:01:27.853Z,100794.62
2022-11-08T15:08:40.368Z,100791.59
2022-11-08T15:11:52.966Z,100796.44
2022-11-08T15:15:03.696Z,100799.25
2022-11-08T15:18:21.966Z,100803.91
2022-11-08T15:31:24.427Z,100811.78
2022-11-08T15:35:13.239Z,100813.41
2022-11-08T15:47:02.292Z,100811.53
2022-11-08T15:50:47.922Z,100809.19
2022-11-08T15:54:14.085Z,100814.75
2022-11-08T15:57:54.110Z,100810.78
2022-11-08T16:01:01.861Z,100817.47
2022-11-08T16:07:51.566Z,100822.56
2022-11-08T16:38:51.525Z,100824.97
2022-11-08T17:38:17.034Z,100842.31
2022-11-08T17:45:03.639Z,100839.28
2022-11-08T17:48:29.027Z,100844.72
2022-11-08T17:51:37.563Z,100845.28
2022-11-08T17:54:53.214Z,100838.28
2022-11-08T17:58:24.493Z,100838.62
2022-11-08T18:01:53.087Z,100845.09
2022-11-08T18:05:19.301Z,100840.53
2022-11-08T18:08:51.179Z,100839.03
2022-11-08T18:12:02.083Z,100844.59
2022-11-08T18:15:18.096Z,100832.50
2022-11-08T18:18:26.775Z,100823.22
2022-11-08T18:25:34.248Z,100822.25
2022-11-08T18:28:49.784Z,100818.53
2022-11-08T18:31:59.840Z,100818.38
2022-11-08T18:35:15.639Z,100820.44
2022-11-08T18:38:32.532Z,100822.72
2022-11-08T18:41:54.975Z,100822.88
2022-11-08T18:45:22.419Z,100822.53
2022-11-08T18:48:49.740Z,100820.50
2022-11-08T18:52:18.254Z,100806.97
2022-11-08T18:55:30.471Z,100818.62
2022-11-08T18:58:46.419Z,100821.41
2022-11-08T19:01:53.248Z,100822.75
2022-11-08T19:05:11.480Z,100810.59
2022-11-08T19:08:23.814Z,100820.06
2022-11-08T19:11:44.198Z,100812.09
2022-11-08T19:15:12.473Z,100811.91
2022-11-08T19:18:22.766Z,100816.00
2022-11-08T19:21:54.004Z,100813.31
2022-11-08T19:25:16.532Z,100821.56
2022-11-08T19:28:44.215Z,100814.56
2022-11-08T19:31:52.829Z,100809.97
2022-11-08T19:34:59.187Z,100817.50
2022-11-08T19:42:09.913Z,100812.47
2022-11-08T19:45:31.102Z,100825.12
2022-11-08T19:48:44.112Z,100829.97
2022-11-08T19:52:16.536Z,100831.66
2022-11-08T19:55:28.052Z,100835.12
2022-11-08T19:58:44.741Z,100833.06
2022-11-08T20:02:01.459Z,100840.72
2022-11-08T20:05:14.733Z,100836.31
2022-11-08T20:08:25.459Z,100839.94
2022-11-08T20:11:38.832Z,100843.41
2022-11-08T20:14:45.860Z,100843.19
2022-11-08T20:17:54.529Z,100842.72
2022-11-08T20:21:10.101Z,100848.91
2022-11-08T20:24:38.817Z,100845.97
2022-11-08T20:27:53.965Z,100846.97
2022-11-08T20:31:06.795Z,100847.41
2022-11-08T20:34:29.992Z,100844.00
2022-11-08T20:38:13.524Z,100845.12
2022-11-08T20:44:48.175Z,100846.13
2022-11-08T20:48:02.853Z,100843.72
2022-11-08T20:54:52.359Z,100850.53
2022-11-08T20:58:04.256Z,100843.94
2022-11-08T21:01:27.326Z,100847.22
2022-11-08T21:04:46.245Z,100854.19
2022-11-08T21:08:03.775Z,100853.84
2022-11-08T21:14:57.377Z,100850.53
2022-11-08T21:21:26.253Z,100858.38
2022-11-08T21:24:41.952Z,100850.03
2022-11-08T21:31:13.250Z,100853.31
2022-11-08T21:37:53.543Z,100845.78
2022-11-08T21:41:23.122Z,100857.63
2022-11-08T21:44:56.187Z,100852.31
2022-11-08T21:48:15.320Z,100857.25
2022-11-08T21:51:30.323Z,100850.41
2022-11-08T21:54:36.303Z,100853.22
2022-11-08T21:57:51.889Z,100850.87
2022-11-08T22:01:12.707Z,100846.53
2022-11-08T22:04:31.331Z,100849.69
2022-11-08T22:07:50.032Z,100850.37
2022-11-08T22:11:11.944Z,100853.06
2022-11-08T22:14:32.129Z,100851.28
2022-11-08T22:18:15.314Z,100844.53
2022-11-08T22:21:40.547Z,100845.72
2022-11-08T22:24:47.803Z,100840.47
2022-11-08T22:28:00.550Z,100851.19
2022-11-08T22:34:48.903Z,100845.38
2022-11-08T22:37:55.796Z,100844.59
2022-11-08T22:41:10.587Z,100841.41
2022-11-08T22:44:28.085Z,100851.72
2022-11-08T22:51:03.501Z,100842.41
2022-11-08T22:54:15.281Z,100848.41
2022-11-08T22:57:21.361Z,100840.47
2022-11-08T23:00:29.381Z,100838.09
2022-11-08T23:07:10.448Z,100851.19
2022-11-08T23:10:40.967Z,100846.72
2022-11-08T23:14:12.082Z,100843.25
2022-11-08T23:17:28.982Z,100843.16
2022-11-08T23:21:06.506Z,100840.37
2022-11-08T23:24:24.627Z,100838.84
2022-11-08T23:27:48.420Z,100840.34
2022-11-08T23:31:36.198Z,100832.09
2022-11-08T23:34:46.457Z,100831.56
2022-11-08T23:38:12.447Z,100831.88
2022-11-08T23:41:37.742Z,100839.25
2022-11-08T23:44:56.948Z,100839.59
2022-11-08T23:48:09.515Z,100834.66
2022-11-08T23:51:22.470Z,100830.47
2022-11-08T23:54:29.596Z,100831.50
2022-11-08T23:57:35.416Z,100834.94
